sensor_id;sensor_type;location;lat;lon;timestamp;pressure;altitude;pressure_sealevel;temperature;humidity
28310;BME280;15571;50.974;13.936;2023-05-12T00:02:25;100059.91;;;16.40;100.00
28310;BME280;15571;50.974;13.936;2023-05-12T00:05:32;100072.31;;;16.38;100.00
28310;BME280;15571;50.974;13.936;2023-05-12T00:08:44;100068.00;;;16.36;100.00
28310;BME280;15571;50.974;13.936;2023-05-12T00:11:47;100066.34;;;16.31;100.00
28310;BME280;15571;50.974;13.936;2023-05-12T00:14:52;100067.31;;;16.29;100.00
28310;BME280;15571;50.974;13.936;2023-05-12T00:18:05;100075.28;;;16.27;100.00
28310;BME280;15571;50.974;13.936;2023-05-12T00:21:10;100077.13;;;16.25;100.00
28310;BME280;15571;50.974;13.936;2023-05-12T00:24:25;100068.31;;;16.25;100.00
28310;BME280;15571;50.974;13.936;2023-05-12T00:27:34;100066.66;;;16.22;100.00
28310;BME280;15571;50.974;13.936;2023-05-12T00:30:38;100069.34;;;16.21;100.00
28310;BME280;15571;50.974;13.936;2023-05-12T00:33:45;100074.66;;;16.19;100.00
28310;BME280;15571;50.974;13.936;2023-05-12T00:36:49;100078.25;;;16.16;100.00
28310;BME280;15571;50.974;13.936;2023-05-12T00:39:56;100069.56;;;16.13;100.00
28310;BME280;15571;50.974;13.936;2023-05-12T00:42:59;100066.16;;;16.09;100.00
28310;BME280;15571;50.974;13.936;2023-05-12T00:46:04;100068.84;;;16.08;100.00
28310;BME280;15571;50.974;13.936;2023-05-12T00:49:08;100079.44;;;16.06;100.00
28310;BME280;15571;50.974;13.936;2023-05-12T00:52:14;100074.22;;;16.05;100.00
28310;BME280;15571;50.974;13.936;2023-05-12T00:55:19;100068.13;;;16.02;100.00
28310;BME280;15571;50.974;13.936;2023-05-12T00:58:23;100064.66;;;16.00;100.00
28310;BME280;15571;50.974;13.936;2023-05-12T01:01:32;100077.84;;;16.00;100.00
28310;BME280;15571;50.974;13.936;2023-05-12T01:04:37;100069.13;;;15.98;100.00
28310;BME280;15571;50.974;13.936;2023-05-12T01:07:40;100076.25;;;15.96;100.00
28310;BME280;15571;50.974;13.936;2023-05-12T01:10:51;100069.25;;;15.94;100.00
28310;BME280;15571;50.974;13.936;2023-05-12T01:13:55;100067.59;;;15.91;100.00
28310;BME280;15571;50.974;13.936;2023-05-12T01:17:02;100066.72;;;15.91;100.00
28310;BME280;15571;50.974;13.936;2023-05-12T01:20:10;100066.75;;;15.89;100.00
28310;BME280;15571;50.974;13.936;2023-05-12T01:23:18;100071.25;;;15.87;100.00
28310;BME280;15571;50.974;13.936;2023-05-12T01:26:28;100074.81;;;15.84;100.00
28310;BME280;15571;50.974;13.936;2023-05-12T01:29:34;100077.53;;;15.81;100.00
28310;BME280;15571;50.974;13.936;2023-05-12T01:32:37;100077.56;;;15.80;100.00
28310;BME280;15571;50.974;13.936;2023-05-12T01:35:45;100075.88;;;15.77;100.00
28310;BME280;15571;50.974;13.936;2023-05-12T01:38:49;100085.66;;;15.74;100.00
28310;BME280;15571;50.974;13.936;2023-05-12T01:41:54;100082.25;;;15.70;100.00
28310;BME280;15571;50.974;13.936;2023-05-12T01:44:58;100078.78;;;15.68;100.00
28310;BME280;15571;50.974;13.936;2023-05-12T01:48:02;100085.03;;;15.65;100.00
28310;BME280;15571;50.974;13.936;2023-05-12T01:51:11;100080.66;;;15.64;100.00
28310;BME280;15571;50.974;13.936;2023-05-12T01:54:15;100079.81;;;15.62;100.00
28310;BME280;15571;50.974;13.936;2023-05-12T01:57:18;100079.00;;;15.60;100.00
28310;BME280;15571;50.974;13.936;2023-05-12T02:00:28;100092.25;;;15.59;100.00
28310;BME280;15571;50.974;13.936;2023-05-12T02:03:35;100088.78;;;15.56;100.00
28310;BME280;15571;50.974;13.936;2023-05-12T02:06:48;100086.19;;;15.55;100.00
28310;BME280;15571;50.974;13.936;2023-05-12T02:09:51;100088.84;;;15.53;100.00
28310;BME280;15571;50.974;13.936;2023-05-12T02:12:55;100096.81;;;15.52;100.00
28310;BME280;15571;50.974;13.936;2023-05-12T02:16:05;100098.63;;;15.50;100.00
28310;BME280;15571;50.974;13.936;2023-05-12T02:19:12;100086.47;;;15.46;100.00
28310;BME280;15571;50.974;13.936;2023-05-12T02:22:16;100091.72;;;15.46;100.00
28310;BME280;15571;50.974;13.936;2023-05-12T02:25:23;100092.66;;;15.43;100.00
28310;BME280;15571;50.974;13.936;2023-05-12T02:28:34;100095.41;;;15.38;100.00
28310;BME280;15571;50.974;13.936;2023-05-12T02:31:51;100090.16;;;15.38;100.00
28310;BME280;15571;50.974;13.936;2023-05-12T02:34:53;100092.88;;;15.35;100.00
28310;BME280;15571;50.974;13.936;2023-05-12T02:37:57;100094.66;;;15.35;100.00
28310;BME280;15571;50.974;13.936;2023-05-12T02:41:00;100093.88;;;15.31;100.00
28310;BME280;15571;50.974;13.936;2023-05-12T02:44:05;100087.75;;;15.29;100.00
28310;BME280;15571;50.974;13.936;2023-05-12T02:47:08;100090.47;;;15.28;100.00
28310;BME280;15571;50.974;13.936;2023-05-12T02:50:14;100094.03;;;15.25;100.00
28310;BME280;15571;50.974;13.936;2023-05-12T02:53:20;100091.47;;;15.22;100.00
28310;BME280;15571;50.974;13.936;2023-05-12T02:56:26;100087.13;;;15.21;100.00
28310;BME280;15571;50.974;13.936;2023-05-12T02:59:33;100094.19;;;15.19;100.00
28310;BME280;15571;50.974;13.936;2023-05-12T03:02:37;100089.03;;;15.16;100.00
28310;BME280;15571;50.974;13.936;2023-05-12T03:05:43;100083.75;;;15.16;100.00
28310;BME280;15571;50.974;13.936;2023-05-12T03:08:51;100085.56;;;15.14;100.00
28310;BME280;15571;50.974;13.936;2023-05-12T03:11:56;100086.47;;;15.13;100.00
28310;BME280;15571;50.974;13.936;2023-05-12T03:15:00;100086.53;;;15.09;100.00
28310;BME280;15571;50.974;13.936;2023-05-12T03:18:07;100090.13;;;15.07;100.00
28310;BME280;15571;50.974;13.936;2023-05-12T03:21:15;100088.44;;;15.04;100.00
28310;BME280;15571;50.974;13.936;2023-05-12T03:24:20;100095.50;;;15.02;100.00
28310;BME280;15571;50.974;13.936;2023-05-12T03:27:24;100087.66;;;15.01;100.00
28310;BME280;15571;50.974;13.936;2023-05-12T03:30:29;100098.22;;;14.99;100.00
28310;BME280;15571;50.974;13.936;2023-05-12T03:33:36;100095.63;;;14.98;100.00
28310;BME280;15571;50.974;13.936;2023-05-12T03:36:38;100103.59;;;14.96;100.00
28310;BME280;15571;50.974;13.936;2023-05-12T03:39:46;100100.94;;;14.96;100.00
28310;BME280;15571;50.974;13.936;2023-05-12T03:42:48;100101.91;;;14.93;100.00
28310;BME280;15571;50.974;13.936;2023-05-12T03:45:54;100108.06;;;14.92;100.00
28310;BME280;15571;50.974;13.936;2023-05-12T03:49:00;100105.47;;;14.91;100.00
28310;BME280;15571;50.974;13.936;2023-05-12T03:52:05;100109.00;;;14.90;100.00
28310;BME280;15571;50.974;13.936;2023-05-12T03:55:16;100102.91;;;14.88;100.00
28310;BME280;15571;50.974;13.936;2023-05-12T03:58:21;100107.34;;;14.86;100.00
28310;BME280;15571;50.974;13.936;2023-05-12T04:01:25;100105.63;;;14.85;100.00
28310;BME280;15571;50.974;13.936;2023-05-12T04:04:29;100112.66;;;14.84;100.00
28310;BME280;15571;50.974;13.936;2023-05-12T04:07:36;100110.06;;;14.83;100.00
28310;BME280;15571;50.974;13.936;2023-05-12T04:10:40;100105.69;;;14.82;100.00
28310;BME280;15571;50.974;13.936;2023-05-12T04:13:42;100108.31;;;14.83;100.00
28310;BME280;15571;50.974;13.936;2023-05-12T04:16:50;100111.84;;;14.82;100.00
28310;BME280;15571;50.974;13.936;2023-05-12T04:19:54;100114.50;;;14.81;100.00
28310;BME280;15571;50.974;13.936;2023-05-12T04:23:14;100108.38;;;14.80;100.00
28310;BME280;15571;50.974;13.936;2023-05-12T04:26:17;100107.50;;;14.79;100.00
28310;BME280;15571;50.974;13.936;2023-05-12T04:29:21;100112.75;;;14.79;100.00
28310;BME280;15571;50.974;13.936;2023-05-12T04:32:26;100125.97;;;14.78;100.00
28310;BME280;15571;50.974;13.936;2023-05-12T04:35:28;100124.22;;;14.78;100.00
28310;BME280;15571;50.974;13.936;2023-05-12T04:38:38;100119.88;;;14.77;100.00
28310;BME280;15571;50.974;13.936;2023-05-12T04:41:50;100118.97;;;14.78;100.00
28310;BME280;15571;50.974;13.936;2023-05-12T04:45:05;100118.06;;;14.78;100.00
28310;BME280;15571;50.974;13.936;2023-05-12T04:48:13;100124.22;;;14.78;100.00
28310;BME280;15571;50.974;13.936;2023-05-12T04:51:20;100118.97;;;14.78;100.00
28310;BME280;15571;50.974;13.936;2023-05-12T04:54:34;100116.31;;;14.78;100.00
28310;BME280;15571;50.974;13.936;2023-05-12T04:57:36;100123.31;;;14.79;100.00
28310;BME280;15571;50.974;13.936;2023-05-12T05:00:53;100120.66;;;14.81;100.00
28310;BME280;15571;50.974;13.936;2023-05-12T05:03:58;100136.38;;;14.84;100.00
28310;BME280;15571;50.974;13.936;2023-05-12T05:07:04;100129.34;;;14.85;100.00
28310;BME280;15571;50.974;13.936;2023-05-12T05:10:10;100122.28;;;14.87;100.00
28310;BME280;15571;50.974;13.936;2023-05-12T05:13:18;100124.91;;;14.87;100.00
28310;BME280;15571;50.974;13.936;2023-05-12T05:16:24;100133.66;;;14.89;100.00
28310;BME280;15571;50.974;13.936;2023-05-12T05:19:34;100137.97;;;14.91;100.00
28310;BME280;15571;50.974;13.936;2023-05-12T05:22:39;100137.91;;;14.93;100.00
28310;BME280;15571;50.974;13.936;2023-05-12T05:25:52;100140.56;;;14.93;100.00
28310;BME280;15571;50.974;13.936;2023-05-12T05:29:03;100136.06;;;14.97;100.00
28310;BME280;15571;50.974;13.936;2023-05-12T05:32:11;100136.84;;;15.00;100.00
28310;BME280;15571;50.974;13.936;2023-05-12T05:35:20;100137.72;;;15.01;100.00
28310;BME280;15571;50.974;13.936;2023-05-12T05:38:26;100142.91;;;15.04;100.00
28310;BME280;15571;50.974;13.936;2023-05-12T05:41:36;100133.25;;;15.04;100.00
28310;BME280;15571;50.974;13.936;2023-05-12T05:44:40;100139.31;;;15.08;100.00
28310;BME280;15571;50.974;13.936;2023-05-12T05:47:47;100145.34;;;15.12;100.00
28310;BME280;15571;50.974;13.936;2023-05-12T05:50:55;100147.94;;;15.15;100.00
28310;BME280;15571;50.974;13.936;2023-05-12T05:54:03;100150.50;;;15.18;100.00
28310;BME280;15571;50.974;13.936;2023-05-12T05:57:12;100154.81;;;15.20;100.00
28310;BME280;15571;50.974;13.936;2023-05-12T06:00:15;100149.44;;;15.23;100.00
28310;BME280;15571;50.974;13.936;2023-05-12T06:03:24;100155.53;;;15.27;100.00
28310;BME280;15571;50.974;13.936;2023-05-12T06:06:30;100150.25;;;15.27;100.00
28310;BME280;15571;50.974;13.936;2023-05-12T06:09:33;100145.06;;;15.24;100.00
28310;BME280;15571;50.974;13.936;2023-05-12T06:12:42;100158.16;;;15.27;100.00
28310;BME280;15571;50.974;13.936;2023-05-12T06:15:51;100155.44;;;15.30;100.00
28310;BME280;15571;50.974;13.936;2023-05-12T06:19:01;100150.91;;;15.35;100.00
28310;BME280;15571;50.974;13.936;2023-05-12T06:22:19;100162.19;;;15.40;100.00
28310;BME280;15571;50.974;13.936;2023-05-12T06:25:26;100151.50;;;15.47;100.00
28310;BME280;15571;50.974;13.936;2023-05-12T06:28:36;100161.94;;;15.51;100.00
28310;BME280;15571;50.974;13.936;2023-05-12T06:31:39;100161.88;;;15.53;100.00
28310;BME280;15571;50.974;13.936;2023-05-12T06:34:43;100161.81;;;15.56;100.00
28310;BME280;15571;50.974;13.936;2023-05-12T06:37:57;100154.59;;;15.61;100.00
28310;BME280;15571;50.974;13.936;2023-05-12T06:41:00;100158.91;;;15.65;100.00
28310;BME280;15571;50.974;13.936;2023-05-12T06:44:06;100156.16;;;15.68;100.00
28310;BME280;15571;50.974;13.936;2023-05-12T06:47:12;100159.56;;;15.74;100.00
28310;BME280;15571;50.974;13.936;2023-05-12T06:50:16;100151.50;;;15.78;100.00
28310;BME280;15571;50.974;13.936;2023-05-12T06:53:27;100156.63;;;15.84;100.00
28310;BME280;15571;50.974;13.936;2023-05-12T06:56:34;100155.59;;;15.90;100.00
28310;BME280;15571;50.974;13.936;2023-05-12T06:59:43;100156.28;;;15.97;100.00
28310;BME280;15571;50.974;13.936;2023-05-12T07:02:49;100157.88;;;16.02;100.00
28310;BME280;15571;50.974;13.936;2023-05-12T07:05:58;100161.22;;;16.09;100.00
28310;BME280;15571;50.974;13.936;2023-05-12T07:09:03;100153.03;;;16.18;100.00
28310;BME280;15571;50.974;13.936;2023-05-12T07:12:11;100151.88;;;16.27;100.00
28310;BME280;15571;50.974;13.936;2023-05-12T07:15:19;100159.72;;;16.30;100.00
28310;BME280;15571;50.974;13.936;2023-05-12T07:18:27;100146.34;;;16.35;100.00
28310;BME280;15571;50.974;13.936;2023-05-12T07:21:37;100142.75;;;16.38;100.00
28310;BME280;15571;50.974;13.936;2023-05-12T07:24:42;100151.34;;;16.44;100.00
28310;BME280;15571;50.974;13.936;2023-05-12T07:27:54;100151.13;;;16.52;100.00
28310;BME280;15571;50.974;13.936;2023-05-12T07:30:58;100153.47;;;16.61;100.00
28310;BME280;15571;50.974;13.936;2023-05-12T07:34:05;100143.66;;;16.65;100.00
28310;BME280;15571;50.974;13.936;2023-05-12T07:37:12;100146.16;;;16.70;100.00
28310;BME280;15571;50.974;13.936;2023-05-12T07:40:21;100145.19;;;16.72;100.00
28310;BME280;15571;50.974;13.936;2023-05-12T07:43:27;100147.69;;;16.77;100.00
28310;BME280;15571;50.974;13.936;2023-05-12T07:46:33;100151.16;;;16.79;100.00
28310;BME280;15571;50.974;13.936;2023-05-12T07:49:47;100155.38;;;16.85;100.00
28310;BME280;15571;50.974;13.936;2023-05-12T07:52:53;100159.59;;;16.90;100.00
28310;BME280;15571;50.974;13.936;2023-05-12T07:56:01;100163.78;;;16.98;100.00
28310;BME280;15571;50.974;13.936;2023-05-12T07:59:09;100161.88;;;17.03;100.00
28310;BME280;15571;50.974;13.936;2023-05-12T08:02:12;100155.53;;;17.08;100.00
28310;BME280;15571;50.974;13.936;2023-05-12T08:05:18;100154.41;;;17.16;100.00
28310;BME280;15571;50.974;13.936;2023-05-12T08:08:23;100145.38;;;17.21;100.00
28310;BME280;15571;50.974;13.936;2023-05-12T08:11:27;100142.53;;;17.27;100.00
28310;BME280;15571;50.974;13.936;2023-05-12T08:14:34;100147.63;;;17.34;100.00
28310;BME280;15571;50.974;13.936;2023-05-12T08:17:45;100146.50;;;17.39;100.00
28310;BME280;15571;50.974;13.936;2023-05-12T08:20:50;100149.88;;;17.45;100.00
28310;BME280;15571;50.974;13.936;2023-05-12T08:23:54;100148.91;;;17.47;100.00
28310;BME280;15571;50.974;13.936;2023-05-12T08:26:59;100154.91;;;17.52;100.00
28310;BME280;15571;50.974;13.936;2023-05-12T08:30:01;100148.56;;;17.56;100.00
28310;BME280;15571;50.974;13.936;2023-05-12T08:33:07;100144.91;;;17.61;100.00
28310;BME280;15571;50.974;13.936;2023-05-12T08:36:11;100147.41;;;17.64;100.00
28310;BME280;15571;50.974;13.936;2023-05-12T08:39:17;100146.41;;;17.68;100.00
28310;BME280;15571;50.974;13.936;2023-05-12T08:42:26;100151.34;;;17.77;100.00
28310;BME280;15571;50.974;13.936;2023-05-12T08:45:40;100145.81;;;17.83;100.00
28310;BME280;15571;50.974;13.936;2023-05-12T08:48:50;100157.06;;;17.90;100.00
28310;BME280;15571;50.974;13.936;2023-05-12T08:51:55;100155.97;;;17.96;100.00
28310;BME280;15571;50.974;13.936;2023-05-12T08:54:59;100157.56;;;18.01;100.00
28310;BME280;15571;50.974;13.936;2023-05-12T08:58:09;100157.31;;;18.08;100.00
28310;BME280;15571;50.974;13.936;2023-05-12T09:01:14;100163.22;;;18.16;100.00
28310;BME280;15571;50.974;13.936;2023-05-12T09:04:20;100166.47;;;18.23;100.00
28310;BME280;15571;50.974;13.936;2023-05-12T09:07:28;100167.09;;;18.29;100.00
28310;BME280;15571;50.974;13.936;2023-05-12T09:10:33;100159.91;;;18.33;98.75
28310;BME280;15571;50.974;13.936;2023-05-12T09:13:44;100164.06;;;18.40;98.31
28310;BME280;15571;50.974;13.936;2023-05-12T09:16:47;100158.50;;;18.46;97.74
28310;BME280;15571;50.974;13.936;2023-05-12T09:19:53;100160.97;;;18.51;97.29
28310;BME280;15571;50.974;13.936;2023-05-12T09:22:59;100157.34;;;18.54;94.87
28310;BME280;15571;50.974;13.936;2023-05-12T09:26:15;100161.59;;;18.58;94.55
28310;BME280;15571;50.974;13.936;2023-05-12T09:29:26;100157.09;;;18.60;90.76
28310;BME280;15571;50.974;13.936;2023-05-12T09:32:30;100155.13;;;18.65;90.77
28310;BME280;15571;50.974;13.936;2023-05-12T09:35:39;100158.47;;;18.70;89.41
28310;BME280;15571;50.974;13.936;2023-05-12T09:38:43;100157.47;;;18.73;88.59
28310;BME280;15571;50.974;13.936;2023-05-12T09:41:54;100161.78;;;18.75;84.84
28310;BME280;15571;50.974;13.936;2023-05-12T09:45:04;100166.03;;;18.79;84.19
28310;BME280;15571;50.974;13.936;2023-05-12T09:48:12;100155.38;;;18.81;81.07
28310;BME280;15571;50.974;13.936;2023-05-12T09:51:15;100158.81;;;18.83;79.83
28310;BME280;15571;50.974;13.936;2023-05-12T09:54:23;100167.44;;;18.88;79.31
28310;BME280;15571;50.974;13.936;2023-05-12T09:57:25;100164.50;;;18.96;76.35
28310;BME280;15571;50.974;13.936;2023-05-12T10:00:42;100148.22;;;19.05;72.85
28310;BME280;15571;50.974;13.936;2023-05-12T10:03:51;100147.94;;;19.11;72.60
28310;BME280;15571;50.974;13.936;2023-05-12T10:06:56;100153.84;;;19.18;72.95
28310;BME280;15571;50.974;13.936;2023-05-12T10:10:01;100154.53;;;19.23;71.99
28310;BME280;15571;50.974;13.936;2023-05-12T10:13:05;100147.31;;;19.27;72.57
28310;BME280;15571;50.974;13.936;2023-05-12T10:16:12;100155.06;;;19.32;73.42
28310;BME280;15571;50.974;13.936;2023-05-12T10:19:18;100155.72;;;19.37;68.88
28310;BME280;15571;50.974;13.936;2023-05-12T10:22:23;100151.09;;;19.42;70.06
28310;BME280;15571;50.974;13.936;2023-05-12T10:25:28;100148.34;;;19.43;70.53
28310;BME280;15571;50.974;13.936;2023-05-12T10:28:32;100151.69;;;19.49;71.20
28310;BME280;15571;50.974;13.936;2023-05-12T10:31:41;100147.97;;;19.53;71.71
28310;BME280;15571;50.974;13.936;2023-05-12T10:34:45;100146.91;;;19.57;70.63
28310;BME280;15571;50.974;13.936;2023-05-12T10:37:52;100145.69;;;19.64;69.27
28310;BME280;15571;50.974;13.936;2023-05-12T10:41:01;100148.88;;;19.72;67.80
28310;BME280;15571;50.974;13.936;2023-05-12T10:44:07;100157.50;;;19.78;67.03
28310;BME280;15571;50.974;13.936;2023-05-12T10:47:20;100141.50;;;19.79;67.37
28310;BME280;15571;50.974;13.936;2023-05-12T10:50:30;100145.94;;;19.79;63.58
28310;BME280;15571;50.974;13.936;2023-05-12T10:53:35;100142.34;;;19.80;62.12
28310;BME280;15571;50.974;13.936;2023-05-12T10:56:41;100148.31;;;19.85;63.42
28310;BME280;15571;50.974;13.936;2023-05-12T10:59:50;100150.06;;;19.86;62.59
28310;BME280;15571;50.974;13.936;2023-05-12T11:03:01;100149.91;;;19.89;58.88
28310;BME280;15571;50.974;13.936;2023-05-12T11:06:04;100152.31;;;19.95;61.01
28310;BME280;15571;50.974;13.936;2023-05-12T11:09:11;100146.91;;;19.97;58.94
28310;BME280;15571;50.974;13.936;2023-05-12T11:12:16;100154.84;;;19.98;56.20
28310;BME280;15571;50.974;13.936;2023-05-12T11:15:23;100150.25;;;20.02;55.63
28310;BME280;15571;50.974;13.936;2023-05-12T11:18:31;100143.00;;;20.05;56.86
28310;BME280;15571;50.974;13.936;2023-05-12T11:21:35;100145.47;;;20.09;58.88
28310;BME280;15571;50.974;13.936;2023-05-12T11:24:40;100142.69;;;20.12;59.53
28310;BME280;15571;50.974;13.936;2023-05-12T11:27:48;100141.75;;;20.13;59.48
28310;BME280;15571;50.974;13.936;2023-05-12T11:30:55;100139.91;;;20.15;59.11
28310;BME280;15571;50.974;13.936;2023-05-12T15:12:26;100171.84;;;19.94;87.08
28310;BME280;15571;50.974;13.936;2023-05-12T15:15:30;100167.31;;;19.96;86.32
28310;BME280;15571;50.974;13.936;2023-05-12T15:18:35;100164.66;;;19.96;85.69
28310;BME280;15571;50.974;13.936;2023-05-12T15:21:37;100161.00;;;19.99;85.62
28310;BME280;15571;50.974;13.936;2023-05-12T15:24:41;100170.63;;;20.01;86.11
28310;BME280;15571;50.974;13.936;2023-05-12T15:27:52;100167.84;;;20.04;86.15
28310;BME280;15571;50.974;13.936;2023-05-12T15:30:57;100169.41;;;20.09;86.42
28310;BME280;15571;50.974;13.936;2023-05-12T15:34:00;100170.19;;;20.11;86.54
28310;BME280;15571;50.974;13.936;2023-05-12T15:37:03;100173.66;;;20.13;86.30
28310;BME280;15571;50.974;13.936;2023-05-12T15:40:08;100179.81;;;20.13;85.64
28310;BME280;15571;50.974;13.936;2023-05-12T15:43:17;100184.28;;;20.13;83.73
28310;BME280;15571;50.974;13.936;2023-05-12T15:46:20;100174.78;;;20.07;81.37
28310;BME280;15571;50.974;13.936;2023-05-12T15:49:33;100177.53;;;20.05;81.31
28310;BME280;15571;50.974;13.936;2023-05-12T15:52:45;100170.63;;;20.01;81.24
28310;BME280;15571;50.974;13.936;2023-05-12T15:55:57;100167.16;;;19.99;81.30
28310;BME280;15571;50.974;13.936;2023-05-12T15:59:04;100168.13;;;19.98;81.93
28310;BME280;15571;50.974;13.936;2023-05-12T16:02:09;100161.13;;;19.96;82.55
28310;BME280;15571;50.974;13.936;2023-05-12T16:05:12;100161.13;;;19.96;82.95
28310;BME280;15571;50.974;13.936;2023-05-12T16:08:29;100154.97;;;19.95;83.69
28310;BME280;15571;50.974;13.936;2023-05-12T16:11:33;100163.00;;;19.94;84.93
28310;BME280;15571;50.974;13.936;2023-05-12T16:14:44;100172.75;;;19.93;85.76
28310;BME280;15571;50.974;13.936;2023-05-12T16:17:46;100199.34;;;19.93;86.20
28310;BME280;15571;50.974;13.936;2023-05-12T16:20:54;100206.50;;;19.91;89.28
28310;BME280;15571;50.974;13.936;2023-05-12T16:23:57;100220.72;;;19.90;91.79
28310;BME280;15571;50.974;13.936;2023-05-12T16:26:59;100218.97;;;19.89;92.27
28310;BME280;15571;50.974;13.936;2023-05-12T16:30:04;100213.66;;;19.89;92.85
28310;BME280;15571;50.974;13.936;2023-05-12T16:33:11;100217.28;;;19.88;94.01
28310;BME280;15571;50.974;13.936;2023-05-12T16:36:14;100215.66;;;19.84;95.10
28310;BME280;15571;50.974;13.936;2023-05-12T16:39:18;100220.16;;;19.82;95.22
28310;BME280;15571;50.974;13.936;2023-05-12T16:42:28;100228.13;;;19.82;95.58
28310;BME280;15571;50.974;13.936;2023-05-12T16:45:34;100228.13;;;19.82;95.92
28310;BME280;15571;50.974;13.936;2023-05-12T16:48:38;100231.72;;;19.81;96.78
28310;BME280;15571;50.974;13.936;2023-05-12T16:51:41;100234.44;;;19.79;97.98
28310;BME280;15571;50.974;13.936;2023-05-12T16:54:43;100231.88;;;19.78;98.23
28310;BME280;15571;50.974;13.936;2023-05-12T16:57:47;100226.59;;;19.76;99.04
28310;BME280;15571;50.974;13.936;2023-05-12T17:00:52;100232.00;;;19.74;100.00
28310;BME280;15571;50.974;13.936;2023-05-12T17:04:03;100228.53;;;19.72;100.00
28310;BME280;15571;50.974;13.936;2023-05-12T17:07:09;100235.84;;;19.67;100.00
28310;BME280;15571;50.974;13.936;2023-05-12T17:10:11;100230.59;;;19.66;100.00
28310;BME280;15571;50.974;13.936;2023-05-12T17:13:17;100230.66;;;19.64;100.00
28310;BME280;15571;50.974;13.936;2023-05-12T17:16:26;100235.25;;;19.60;100.00
28310;BME280;15571;50.974;13.936;2023-05-12T17:19:31;100232.66;;;19.59;100.00
28310;BME280;15571;50.974;13.936;2023-05-12T17:22:37;100231.88;;;19.57;100.00
28310;BME280;15571;50.974;13.936;2023-05-12T17:25:50;100232.91;;;19.53;100.00
28310;BME280;15571;50.974;13.936;2023-05-12T17:28:53;100239.34;;;19.47;100.00
28310;BME280;15571;50.974;13.936;2023-05-12T17:32:13;100242.25;;;19.41;100.00
28310;BME280;15571;50.974;13.936;2023-05-12T17:35:20;100253.19;;;19.33;100.00
28310;BME280;15571;50.974;13.936;2023-05-12T17:38:22;100241.13;;;19.26;100.00
28310;BME280;15571;50.974;13.936;2023-05-12T17:41:28;100241.22;;;19.23;100.00
28310;BME280;15571;50.974;13.936;2023-05-12T17:44:40;100236.91;;;19.20;100.00
28310;BME280;15571;50.974;13.936;2023-05-12T17:47:55;100236.19;;;19.17;100.00
28310;BME280;15571;50.974;13.936;2023-05-12T17:51:02;100240.69;;;19.15;100.00
28310;BME280;15571;50.974;13.936;2023-05-12T17:54:07;100238.97;;;19.13;100.00
28310;BME280;15571;50.974;13.936;2023-05-12T17:57:10;100245.34;;;19.09;100.00
28310;BME280;15571;50.974;13.936;2023-05-12T18:00:28;100237.56;;;19.05;100.00
28310;BME280;15571;50.974;13.936;2023-05-12T18:03:35;100239.41;;;19.03;100.00
28310;BME280;15571;50.974;13.936;2023-05-12T18:06:55;100236.94;;;18.98;100.00
28310;BME280;15571;50.974;13.936;2023-05-12T18:10:05;100239.72;;;18.95;100.00
28310;BME280;15571;50.974;13.936;2023-05-12T18:13:07;100247.75;;;18.92;100.00
28310;BME280;15571;50.974;13.936;2023-05-12T18:16:13;100250.41;;;18.92;100.00
28310;BME280;15571;50.974;13.936;2023-05-12T18:19:25;100240.72;;;18.91;100.00
28310;BME280;15571;50.974;13.936;2023-05-12T18:22:36;100247.88;;;18.89;100.00
28310;BME280;15571;50.974;13.936;2023-05-12T18:25:48;100256.88;;;18.85;100.00
28310;BME280;15571;50.974;13.936;2023-05-12T18:28:54;100241.06;;;18.81;100.00
28310;BME280;15571;50.974;13.936;2023-05-12T18:31:57;100243.06;;;18.76;100.00
28310;BME280;15571;50.974;13.936;2023-05-12T18:35:08;100252.94;;;18.73;100.00
28310;BME280;15571;50.974;13.936;2023-05-12T18:38:15;100263.63;;;18.70;100.00
28310;BME280;15571;50.974;13.936;2023-05-12T18:41:21;100259.31;;;18.67;100.00
28310;BME280;15571;50.974;13.936;2023-05-12T18:44:26;100264.75;;;18.64;100.00
28310;BME280;15571;50.974;13.936;2023-05-12T18:47:28;100270.97;;;18.63;100.00
28310;BME280;15571;50.974;13.936;2023-05-12T18:50:36;100272.88;;;18.59;100.00
28310;BME280;15571;50.974;13.936;2023-05-12T18:53:42;100272.13;;;18.56;100.00
28310;BME280;15571;50.974;13.936;2023-05-12T18:56:54;100268.66;;;18.54;100.00
28310;BME280;15571;50.974;13.936;2023-05-12T19:00:00;100274.03;;;18.52;100.00
28310;BME280;15571;50.974;13.936;2023-05-12T19:03:06;100282.97;;;18.49;100.00
28310;BME280;15571;50.974;13.936;2023-05-12T19:06:13;100285.63;;;18.49;100.00
28310;BME280;15571;50.974;13.936;2023-05-12T19:09:17;100296.25;;;18.48;100.00
28310;BME280;15571;50.974;13.936;2023-05-12T19:12:21;100294.66;;;18.44;100.00
28310;BME280;15571;50.974;13.936;2023-05-12T19:15:35;100304.53;;;18.40;100.00
28310;BME280;15571;50.974;13.936;2023-05-12T19:18:39;100313.50;;;18.36;100.00
28310;BME280;15571;50.974;13.936;2023-05-12T19:21:44;100317.19;;;18.32;100.00
28310;BME280;15571;50.974;13.936;2023-05-12T19:24:47;100314.69;;;18.27;100.00
28310;BME280;15571;50.974;13.936;2023-05-12T19:27:56;100321.88;;;18.24;100.00
28310;BME280;15571;50.974;13.936;2023-05-12T19:31:03;100325.56;;;18.19;100.00
28310;BME280;15571;50.974;13.936;2023-05-12T19:34:08;100331.88;;;18.15;100.00